Time;durP1;ratioP1;P1;durP2;ratioP2;P2;SDS_P1;SDS_P2;PMS_P1;PMS_P2;Temp;Humidity;BMP_temperature;BMP_pressure;BME280_temperature;BME280_humidity;BME280_pressure;Samples;Min_cycle;Max_cycle;Signal;HPM_P1;HPM_P2
2022/10/06 00:01:17;;;;;;;4.07;2.17;;;16.80;90.30;;;;;;4967905;28;20558;-73
2022/10/06 00:03:44;;;;;;;5.65;2.40;;;16.80;90.40;;;;;;4975971;28;20030;-73
2022/10/06 00:06:12;;;;;;;3.55;2.10;;;16.70;90.40;;;;;;4976955;28;20022;-73
2022/10/06 00:08:39;;;;;;;2.63;2.28;;;16.70;90.50;;;;;;4976210;28;20549;-73
2022/10/06 00:11:07;;;;;;;2.63;1.92;;;16.70;90.50;;;;;;4971679;28;20049;-73
2022/10/06 00:13:33;;;;;;;2.25;1.95;;;16.70;90.60;;;;;;4975094;28;20042;-73
2022/10/06 00:15:59;;;;;;;6.30;2.45;;;16.70;90.60;;;;;;4971198;28;20038;-73
2022/10/06 00:18:25;;;;;;;2.42;2.15;;;16.80;90.80;;;;;;4971677;28;20035;-74
2022/10/06 00:20:56;;;;;;;5.47;1.85;;;16.70;90.70;;;;;;4973865;28;20453;-74
2022/10/06 00:23:22;;;;;;;6.88;2.40;;;16.70;90.70;;;;;;4976648;28;20039;-73
2022/10/06 00:25:48;;;;;;;3.22;2.10;;;16.70;90.80;;;;;;4975561;28;20040;-74
2022/10/06 00:28:14;;;;;;;2.60;2.30;;;16.60;90.80;;;;;;4979432;28;20042;-74
2022/10/06 00:30:40;;;;;;;2.45;1.90;;;16.60;90.90;;;;;;4973735;28;20085;-74
2022/10/06 00:33:05;;;;;;;2.15;1.95;;;16.60;91.10;;;;;;4977159;28;20063;-75
2022/10/06 00:35:33;;;;;;;7.15;2.63;;;16.70;91.00;;;;;;4982949;28;20026;-74
2022/10/06 00:38:00;;;;;;;2.50;2.25;;;16.80;90.90;;;;;;4971227;28;20041;-74
2022/10/06 00:40:26;;;;;;;7.07;2.42;;;16.70;91.00;;;;;;4981431;28;20045;-74
2022/10/06 00:42:56;;;;;;;2.15;2.00;;;16.80;91.00;;;;;;4982832;28;20033;-74
2022/10/06 00:45:37;;;;;;;3.72;1.83;;;16.80;91.00;;;;;;4977970;28;20030;-73
2022/10/06 00:48:11;;;;;;;3.67;2.17;;;16.80;91.00;;;;;;4977197;28;20121;-73
2022/10/06 00:50:38;;;;;;;3.03;1.98;;;16.90;91.10;;;;;;4977243;28;20052;-74
2022/10/06 00:53:04;;;;;;;3.58;2.15;;;16.90;90.90;;;;;;4974452;28;20061;-74
2022/10/06 00:55:31;;;;;;;2.83;1.90;;;17.00;91.00;;;;;;4975702;28;20030;-74
2022/10/06 00:57:58;;;;;;;3.05;2.55;;;17.00;90.90;;;;;;4977830;28;20030;-74
2022/10/06 01:00:25;;;;;;;5.07;2.28;;;17.00;91.00;;;;;;4978018;28;20787;-74
2022/10/06 01:02:56;;;;;;;2.42;2.03;;;17.10;90.80;;;;;;4979640;28;20100;-74
2022/10/06 01:05:26;;;;;;;4.18;2.40;;;17.10;91.20;;;;;;4978586;28;20030;-74
2022/10/06 01:07:52;;;;;;;4.13;2.28;;;17.10;90.90;;;;;;4980151;28;20045;-74
2022/10/06 01:10:19;;;;;;;2.83;1.80;;;17.10;90.90;;;;;;4979235;28;20045;-74
2022/10/06 01:12:45;;;;;;;3.20;2.35;;;17.10;90.70;;;;;;4972315;28;20062;-74
2022/10/06 01:15:11;;;;;;;5.18;2.10;;;17.10;90.70;;;;;;4974879;28;20252;-74
2022/10/06 01:17:43;;;;;;;4.82;2.10;;;17.20;90.90;;;;;;4979799;28;20034;-74
2022/10/06 01:20:13;;;;;;;4.80;1.98;;;17.20;90.80;;;;;;4976802;28;20486;-74
2022/10/06 01:22:56;;;;;;;4.25;2.03;;;17.30;90.80;;;;;;4970999;28;20026;-74
2022/10/06 01:25:22;;;;;;;5.47;2.20;;;17.30;90.60;;;;;;4979947;28;20485;-74
2022/10/06 01:27:54;;;;;;;7.00;2.15;;;17.40;90.70;;;;;;4971638;28;20031;-74
2022/10/06 01:30:30;;;;;;;1.95;1.80;;;17.40;90.50;;;;;;4973697;28;20409;-74
2022/10/06 01:32:56;;;;;;;2.58;2.28;;;17.30;90.50;;;;;;4975399;28;20038;-74
2022/10/06 01:35:23;;;;;;;5.65;2.33;;;17.30;90.70;;;;;;4978713;28;20054;-74
2022/10/06 01:37:49;;;;;;;2.55;2.13;;;17.30;90.80;;;;;;4974628;28;20031;-74
2022/10/06 01:40:15;;;;;;;4.53;2.10;;;17.30;90.70;;;;;;4973373;28;20080;-74
2022/10/06 01:42:40;;;;;;;3.85;1.90;;;17.30;90.70;;;;;;4976827;28;20022;-74
2022/10/06 01:45:07;;;;;;;3.17;2.30;;;17.30;90.90;;;;;;4979775;28;20037;-74
2022/10/06 01:47:34;;;;;;;2.67;2.03;;;17.30;90.80;;;;;;4976721;28;20038;-74
2022/10/06 01:49:59;;;;;;;4.55;2.38;;;17.20;90.80;;;;;;4973156;28;20041;-74
2022/10/06 01:52:27;;;;;;;2.33;2.05;;;17.20;91.00;;;;;;4979117;28;20034;-75
2022/10/06 01:54:53;;;;;;;5.00;2.65;;;17.10;91.10;;;;;;4974553;28;20043;-74
2022/10/06 01:57:20;;;;;;;3.05;2.33;;;17.10;91.10;;;;;;4975430;28;20115;-74
2022/10/06 01:59:47;;;;;;;3.33;2.03;;;17.10;91.30;;;;;;4973525;28;20169;-74
2022/10/06 02:02:13;;;;;;;5.40;2.10;;;17.10;91.30;;;;;;4979942;28;20027;-74
2022/10/06 02:04:38;;;;;;;2.42;2.20;;;17.10;91.20;;;;;;4973122;28;20038;-74
2022/10/06 02:07:05;;;;;;;3.55;2.22;;;17.10;91.60;;;;;;4982171;28;20904;-74
2022/10/06 02:09:39;;;;;;;12.35;2.58;;;17.10;91.20;;;;;;4980801;28;20052;-74
2022/10/06 02:12:05;;;;;;;4.60;2.47;;;17.10;91.30;;;;;;4979786;28;20826;-74
2022/10/06 02:14:31;;;;;;;2.53;2.30;;;17.10;91.30;;;;;;4974998;28;20034;-74
2022/10/06 02:16:57;;;;;;;3.50;2.33;;;17.10;91.30;;;;;;4984015;28;20030;-74
2022/10/06 02:19:23;;;;;;;5.25;2.30;;;17.10;91.40;;;;;;4979016;28;20113;-74
2022/10/06 02:21:49;;;;;;;2.40;2.00;;;17.10;91.40;;;;;;4978385;28;20041;-74
2022/10/06 02:24:15;;;;;;;6.93;2.20;;;17.10;91.40;;;;;;4979919;28;20034;-72
2022/10/06 02:26:41;;;;;;;2.95;2.20;;;17.10;91.40;;;;;;4971717;28;20399;-74
2022/10/06 02:29:07;;;;;;;3.05;2.35;;;17.00;91.40;;;;;;4976588;28;20038;-73
2022/10/06 02:31:33;;;;;;;3.88;2.33;;;17.00;91.40;;;;;;4969628;28;20054;-74
2022/10/06 02:33:59;;;;;;;2.72;2.13;;;17.00;91.50;;;;;;4979418;28;20045;-74
2022/10/06 02:36:25;;;;;;;2.83;2.28;;;17.00;91.60;;;;;;4974911;28;20081;-74
2022/10/06 02:38:51;;;;;;;2.85;2.20;;;17.00;91.60;;;;;;4980023;28;20034;-75
2022/10/06 02:41:18;;;;;;;3.33;2.50;;;16.90;91.70;;;;;;4973240;28;20034;-74
2022/10/06 02:43:44;;;;;;;3.65;2.30;;;16.90;91.70;;;;;;4974634;28;20022;-74
2022/10/06 02:46:12;;;;;;;3.92;2.70;;;17.00;91.80;;;;;;4979601;28;20406;-75
2022/10/06 02:48:40;;;;;;;3.63;2.67;;;17.00;91.80;;;;;;4969957;28;20054;-74
2022/10/06 02:51:12;;;;;;;3.75;2.53;;;17.00;91.80;;;;;;4977224;28;20034;-74
2022/10/06 02:53:38;;;;;;;3.75;2.50;;;17.10;91.80;;;;;;4976672;28;20046;-74
2022/10/06 02:56:06;;;;;;;2.80;2.10;;;17.10;91.80;;;;;;4975932;28;20042;-74
2022/10/06 02:58:32;;;;;;;3.03;2.20;;;17.10;91.80;;;;;;4979122;28;20023;-74
2022/10/06 03:01:03;;;;;;;2.65;1.90;;;17.10;91.90;;;;;;4975202;28;20076;-74
2022/10/06 03:03:29;;;;;;;6.43;2.25;;;17.10;91.80;;;;;;4974505;28;20039;-74
2022/10/06 03:06:04;;;;;;;4.57;2.42;;;17.10;91.90;;;;;;4974835;28;20035;-74
2022/10/06 03:08:31;;;;;;;;;;;17.10;91.90;;;;;;4977077;28;20370;-74
2022/10/06 03:11:02;;;;;;;2.92;2.05;;;17.10;92.10;;;;;;4974777;28;19914;-74
2022/10/06 03:13:29;;;;;;;5.07;2.10;;;17.20;91.90;;;;;;4972565;28;20553;-74
2022/10/06 03:15:55;;;;;;;5.28;2.47;;;17.20;91.80;;;;;;4975758;28;20186;-74
2022/10/06 03:18:21;;;;;;;3.90;2.17;;;17.30;91.70;;;;;;4979188;28;20044;-73
2022/10/06 03:20:48;;;;;;;5.07;1.83;;;17.30;91.70;;;;;;4971734;28;20275;-74
2022/10/06 03:23:13;;;;;;;4.70;2.20;;;17.30;91.70;;;;;;4975682;28;20039;-74
2022/10/06 03:25:40;;;;;;;3.47;2.10;;;17.40;91.70;;;;;;4976651;28;20746;-74
2022/10/06 03:28:09;;;;;;;4.95;2.35;;;17.50;92.00;;;;;;4969271;28;20055;-74
2022/10/06 03:30:35;;;;;;;3.85;2.10;;;17.50;92.50;;;;;;4974898;28;20034;-74
2022/10/06 03:33:00;;;;;;;3.63;1.98;;;17.50;92.80;;;;;;4975911;28;20113;-74
2022/10/06 03:35:26;;;;;;;2.92;2.00;;;17.40;93.30;;;;;;4974709;28;20181;-73
2022/10/06 03:37:52;;;;;;;4.03;2.13;;;17.40;93.70;;;;;;4980740;28;20663;-74
2022/10/06 03:40:19;;;;;;;5.97;1.90;;;17.30;93.80;;;;;;4977854;28;20034;-74
2022/10/06 03:42:45;;;;;;;2.30;1.80;;;17.30;93.80;;;;;;4978592;28;20046;-74
2022/10/06 03:45:11;;;;;;;2.58;1.60;;;17.30;93.90;;;;;;4977857;28;20030;-74
2022/10/06 03:47:37;;;;;;;4.05;1.77;;;17.30;93.80;;;;;;4969512;28;20023;-74
2022/10/06 03:50:03;;;;;;;2.25;1.45;;;17.30;93.80;;;;;;4970925;28;20046;-74
2022/10/06 03:52:29;;;;;;;2.60;1.50;;;17.30;94.00;;;;;;4976831;28;20085;-74
2022/10/06 03:54:55;;;;;;;3.45;1.55;;;17.40;93.60;;;;;;4976446;28;20041;-74
2022/10/06 03:57:21;;;;;;;2.08;1.38;;;17.30;93.30;;;;;;4976898;28;20126;-74
2022/10/06 03:59:47;;;;;;;1.40;1.30;;;17.30;93.20;;;;;;4974487;28;20091;-74
2022/10/06 04:02:14;;;;;;;1.48;1.00;;;17.30;92.90;;;;;;4980462;28;20253;-74
2022/10/06 04:04:40;;;;;;;1.77;1.10;;;17.30;92.40;;;;;;4976145;28;20450;-74
2022/10/06 04:07:10;;;;;;;1.98;1.20;;;17.30;92.30;;;;;;4978005;28;20080;-74
2022/10/06 04:09:36;;;;;;;2.30;1.00;;;17.30;92.30;;;;;;4978208;28;20026;-74
2022/10/06 04:12:01;;;;;;;1.00;0.80;;;17.30;92.00;;;;;;4977046;28;20692;-74
2022/10/06 04:14:28;;;;;;;1.17;0.70;;;17.30;91.80;;;;;;4981681;28;20031;-74
2022/10/06 04:16:56;;;;;;;0.82;0.82;;;17.30;91.70;;;;;;4977131;28;20037;-74
2022/10/06 04:19:31;;;;;;;0.63;0.63;;;17.30;91.20;;;;;;4978240;28;20113;-74
2022/10/06 04:21:57;;;;;;;0.75;0.68;;;17.20;90.30;;;;;;4981265;28;20589;-74
2022/10/06 04:24:24;;;;;;;1.67;0.60;;;17.20;90.10;;;;;;4979201;28;20124;-74
2022/10/06 04:26:51;;;;;;;1.60;0.65;;;17.20;89.50;;;;;;4981428;28;20030;-74
2022/10/06 04:29:18;;;;;;;2.47;0.57;;;17.10;89.50;;;;;;4983536;28;20027;-74
2022/10/06 04:31:47;;;;;;;0.45;0.45;;;17.10;90.10;;;;;;4981470;28;20045;-74
2022/10/06 04:34:27;;;;;;;0.85;0.57;;;17.10;90.30;;;;;;4980445;28;20410;-74
2022/10/06 04:36:53;;;;;;;0.55;0.55;;;17.10;90.50;;;;;;4980399;28;20137;-74
2022/10/06 04:39:19;;;;;;;11.55;5.75;;;17.00;90.70;;;;;;4980659;28;20042;-74
2022/10/06 04:41:46;;;;;;;14.43;5.65;;;17.00;90.60;;;;;;4976722;28;20035;-74
2022/10/06 04:44:15;;;;;;;8.13;3.67;;;16.90;90.00;;;;;;4981010;28;20033;-74
2022/10/06 04:46:41;;;;;;;7.45;3.10;;;16.90;90.20;;;;;;4983586;28;20022;-74
2022/10/06 04:49:07;;;;;;;3.58;1.63;;;16.90;90.30;;;;;;4982275;28;20125;-74
2022/10/06 04:51:34;;;;;;;0.77;0.40;;;16.80;90.10;;;;;;4980610;28;20038;-74
2022/10/06 04:54:02;;;;;;;0.80;0.57;;;16.80;89.90;;;;;;4961924;28;20128;-74
2022/10/06 04:56:31;;;;;;;1.65;0.50;;;16.80;89.30;;;;;;4981563;28;20117;-73
2022/10/06 04:59:00;;;;;;;1.15;0.70;;;16.80;89.80;;;;;;4970836;28;20872;-73
2022/10/06 05:01:29;;;;;;;0.75;0.30;;;16.80;89.40;;;;;;4980889;28;20034;-74
2022/10/06 05:03:58;;;;;;;2.00;0.60;;;16.80;89.20;;;;;;4978621;28;20027;-73
2022/10/06 05:06:27;;;;;;;1.55;0.30;;;16.80;88.60;;;;;;4979190;28;20027;-74
2022/10/06 05:08:59;;;;;;;1.67;0.38;;;16.80;88.50;;;;;;4981193;28;20054;-74
2022/10/06 05:11:27;;;;;;;1.13;0.40;;;16.70;88.00;;;;;;4977853;28;20453;-74
2022/10/06 05:13:55;;;;;;;1.38;0.40;;;16.70;87.70;;;;;;4980081;28;20093;-74
2022/10/06 05:16:23;;;;;;;1.08;0.45;;;16.70;87.80;;;;;;4976482;28;20118;-74
2022/10/06 05:18:49;;;;;;;0.55;0.17;;;16.70;87.60;;;;;;4981756;28;20049;-74
2022/10/06 05:21:18;;;;;;;0.80;0.15;;;16.70;88.00;;;;;;4972343;28;20026;-74
2022/10/06 05:23:45;;;;;;;1.20;0.28;;;16.70;88.10;;;;;;4978439;28;20769;-74
2022/10/06 05:26:13;;;;;;;0.30;0.30;;;16.60;88.20;;;;;;4980857;28;20034;-74
2022/10/06 05:28:39;;;;;;;0.93;0.22;;;16.60;88.30;;;;;;4977526;28;20084;-74
2022/10/06 05:31:19;;;;;;;0.65;0.17;;;16.60;87.80;;;;;;4984014;28;20038;-74
2022/10/06 05:33:45;;;;;;;1.15;0.30;;;16.60;86.80;;;;;;4981446;28;20041;-74
2022/10/06 05:36:17;;;;;;;0.70;0.13;;;16.50;87.30;;;;;;4981467;28;20107;-74
2022/10/06 05:38:43;;;;;;;3.08;0.40;;;16.50;86.90;;;;;;4976586;28;20050;-75
2022/10/06 05:41:21;;;;;;;0.43;0.15;;;16.40;87.20;;;;;;4978630;28;20030;-74
2022/10/06 05:43:48;;;;;;;1.70;0.50;;;16.40;87.80;;;;;;4981215;28;20031;-74
2022/10/06 05:46:18;;;;;;;2.35;0.30;;;16.40;88.10;;;;;;4975992;28;20092;-74
2022/10/06 05:48:47;;;;;;;1.63;0.30;;;16.30;88.10;;;;;;4980155;28;20122;-74
2022/10/06 05:51:15;;;;;;;0.57;0.30;;;16.30;88.20;;;;;;4979047;28;20038;-74
2022/10/06 05:53:42;;;;;;;0.75;0.30;;;16.20;88.20;;;;;;4980101;28;20117;-74
2022/10/06 05:56:12;;;;;;;0.98;0.30;;;16.10;88.50;;;;;;4971844;28;20035;-74
2022/10/06 05:58:40;;;;;;;1.45;0.40;;;16.00;88.90;;;;;;4978807;28;20037;-74
2022/10/06 06:01:19;;;;;;;1.27;0.30;;;16.00;88.70;;;;;;4976673;28;20041;-74
2022/10/06 06:03:53;;;;;;;0.98;0.60;;;15.90;89.20;;;;;;4994225;28;20847;-74
2022/10/06 06:06:29;;;;;;;0.38;0.20;;;15.80;89.50;;;;;;4977721;28;20038;-74
2022/10/06 06:09:01;;;;;;;1.65;0.55;;;15.70;89.90;;;;;;4978082;28;20064;-74
2022/10/06 06:11:30;;;;;;;0.15;0.15;;;15.70;90.00;;;;;;4979911;28;20461;-74
2022/10/06 06:14:03;;;;;;;1.55;0.30;;;15.60;90.40;;;;;;4977789;28;20037;-74
2022/10/06 06:16:32;;;;;;;0.35;0.20;;;15.60;90.30;;;;;;4975635;28;20050;-74
2022/10/06 06:18:59;;;;;;;1.38;0.73;;;15.60;90.40;;;;;;4969645;28;20034;-74
2022/10/06 06:21:27;;;;;;;2.92;0.50;;;15.60;90.50;;;;;;4978285;28;20030;-74
2022/10/06 06:23:53;;;;;;;1.00;0.43;;;15.60;90.50;;;;;;4980259;28;20154;-74
2022/10/06 06:26:24;;;;;;;1.60;0.55;;;15.60;90.60;;;;;;4979779;28;20032;-74
2022/10/06 06:28:51;;;;;;;0.70;0.40;;;15.70;90.60;;;;;;4972679;28;20753;-74
2022/10/06 06:31:20;;;;;;;2.45;0.40;;;15.70;90.70;;;;;;4977702;28;20465;-74
2022/10/06 06:33:51;;;;;;;0.80;0.38;;;15.70;90.80;;;;;;4975854;28;20518;-73
2022/10/06 06:36:26;;;;;;;5.22;0.60;;;15.80;90.70;;;;;;4978224;28;20042;-73
2022/10/06 06:38:54;;;;;;;1.52;0.35;;;15.80;90.70;;;;;;4984347;28;20129;-74
2022/10/06 06:41:29;;;;;;;1.30;0.60;;;15.80;90.60;;;;;;4981443;28;20030;-74
2022/10/06 06:44:04;;;;;;;2.05;0.57;;;15.90;90.80;;;;;;4974937;28;20058;-73
2022/10/06 06:46:38;;;;;;;2.65;0.47;;;16.00;91.00;;;;;;4980640;28;20058;-74
2022/10/06 06:49:10;;;;;;;1.40;0.65;;;16.00;90.30;;;;;;4971952;28;20690;-74
2022/10/06 06:51:51;;;;;;;0.68;0.43;;;16.10;90.30;;;;;;4970586;28;20045;-74
2022/10/06 06:54:19;;;;;;;2.38;0.60;;;16.20;90.30;;;;;;4978708;28;20050;-74
2022/10/06 06:56:50;;;;;;;1.80;0.60;;;16.20;90.20;;;;;;4974213;28;20491;-73
2022/10/06 06:59:19;;;;;;;2.15;0.60;;;16.20;90.20;;;;;;4978673;28;20038;-73
2022/10/06 07:01:47;;;;;;;3.28;0.60;;;16.20;90.20;;;;;;4976661;28;20049;-73
2022/10/06 07:04:17;;;;;;;2.95;0.93;;;16.20;90.00;;;;;;4976092;28;20441;-74
2022/10/06 07:07:05;;;;;;;1.50;0.40;;;16.30;90.00;;;;;;4977736;28;20313;-74
2022/10/06 07:09:35;;;;;;;4.25;0.47;;;16.30;89.80;;;;;;4981819;28;20026;-74
2022/10/06 07:12:04;;;;;;;3.28;0.82;;;16.40;89.70;;;;;;4974195;28;20042;-73
2022/10/06 07:14:31;;;;;;;1.00;0.60;;;16.40;89.70;;;;;;4973065;28;20513;-73
2022/10/06 07:25:24;;;;;;;2.90;0.80;;;16.60;87.80;;;;;;4971104;28;20034;-74
2022/10/06 07:27:53;;;;;;;;;;;16.70;88.00;;;;;;4976742;28;20034;-74
2022/10/06 07:30:26;;;;;;;7.95;0.85;;;16.70;87.00;;;;;;4978679;28;19913;-74
2022/10/06 07:32:58;;;;;;;3.50;1.00;;;16.70;85.80;;;;;;4978079;28;20181;-74
2022/10/06 07:35:26;;;;;;;2.40;0.90;;;16.80;84.40;;;;;;4975212;28;20041;-74
2022/10/06 07:37:52;;;;;;;4.20;0.90;;;16.70;84.60;;;;;;4972682;28;20065;-74
2022/10/06 07:40:19;;;;;;;3.00;0.90;;;16.70;85.00;;;;;;4975244;28;20141;-74
2022/10/06 07:42:47;;;;;;;5.88;0.93;;;16.70;85.20;;;;;;4976725;28;20406;-74
2022/10/06 07:45:38;;;;;;;3.17;0.73;;;16.80;83.20;;;;;;4953741;28;20124;-74
2022/10/06 07:48:16;;;;;;;7.28;0.65;;;16.80;82.60;;;;;;4973730;28;20409;-74
2022/10/06 07:50:46;;;;;;;5.18;1.02;;;16.90;81.30;;;;;;4975005;28;20038;-74
2022/10/06 07:53:14;;;;;;;5.45;0.80;;;16.90;82.00;;;;;;4969150;28;20553;-74
2022/10/06 07:55:46;;;;;;;2.92;0.65;;;16.90;81.50;;;;;;4975730;28;20125;-74
2022/10/06 07:58:23;;;;;;;2.92;0.63;;;16.90;81.30;;;;;;4982741;28;20068;-74
2022/10/06 08:00:51;;;;;;;2.63;0.95;;;16.90;80.20;;;;;;4980995;28;20689;-74
2022/10/06 08:03:18;;;;;;;4.07;1.08;;;16.90;79.60;;;;;;4972944;28;20035;-74
2022/10/06 08:05:45;;;;;;;6.13;0.90;;;16.90;79.50;;;;;;4977009;28;20043;-74
2022/10/06 08:08:13;;;;;;;4.28;0.82;;;16.90;78.90;;;;;;4972316;28;20050;-75
2022/10/06 08:10:40;;;;;;;4.30;0.85;;;16.90;78.50;;;;;;4959084;28;20050;-77
2022/10/06 08:13:06;;;;;;;2.88;0.50;;;16.90;78.30;;;;;;4975498;28;20042;-80
2022/10/06 08:15:32;;;;;;;6.80;1.20;;;17.00;78.60;;;;;;4973084;28;20046;-75
2022/10/06 08:17:59;;;;;;;8.63;2.08;;;17.00;78.60;;;;;;4974315;28;20053;-75
2022/10/06 08:20:26;;;;;;;3.50;0.73;;;17.10;77.90;;;;;;4977694;28;20494;-75
2022/10/06 08:22:53;;;;;;;5.43;1.00;;;17.10;75.30;;;;;;4971467;28;20058;-75
2022/10/06 08:25:19;;;;;;;6.50;1.13;;;17.10;76.60;;;;;;4972891;28;20030;-74
2022/10/06 08:27:45;;;;;;;7.03;1.00;;;17.10;77.80;;;;;;4972848;28;20034;-75
2022/10/06 08:30:12;;;;;;;3.55;0.85;;;17.30;75.30;;;;;;4976624;28;20034;-77
2022/10/06 08:32:40;;;;;;;3.33;0.63;;;17.30;74.80;;;;;;4974857;28;20541;-76
2022/10/06 08:35:06;;;;;;;4.50;0.80;;;17.30;74.80;;;;;;4981989;28;20041;-77
2022/10/06 08:37:32;;;;;;;6.07;0.93;;;17.50;74.40;;;;;;4976562;28;20409;-77
2022/10/06 08:39:57;;;;;;;5.95;1.00;;;17.50;73.70;;;;;;4971448;28;20034;-79
2022/10/06 08:42:44;;;;;;;3.38;1.02;;;17.60;73.80;;;;;;4973074;28;20520;-74
2022/10/06 08:45:27;;;;;;;5.93;1.00;;;17.60;74.00;;;;;;4975481;28;20035;-73
2022/10/06 08:48:03;;;;;;;8.07;1.08;;;17.60;72.90;;;;;;4978228;28;20030;-73
2022/10/06 08:50:37;;;;;;;4.03;1.10;;;17.70;74.60;;;;;;4975672;28;20042;-73
2022/10/06 08:53:05;;;;;;;4.22;0.85;;;17.70;74.20;;;;;;4978610;28;20046;-72
2022/10/06 08:55:40;;;;;;;1.85;0.80;;;17.80;74.50;;;;;;4975210;28;20897;-72
2022/10/06 08:58:30;;;;;;;5.68;1.02;;;17.90;74.80;;;;;;4989491;28;20039;-72
2022/10/06 09:01:18;;;;;;;7.22;1.00;;;17.90;73.90;;;;;;4976038;28;20112;-73
2022/10/06 09:03:47;;;;;;;3.38;0.80;;;18.00;74.80;;;;;;4978716;28;20076;-72
2022/10/06 09:06:25;;;;;;;2.95;0.70;;;17.90;71.70;;;;;;4971563;28;20031;-71
2022/10/06 09:08:55;;;;;;;5.65;0.95;;;18.00;72.30;;;;;;4979086;28;20634;-74
2022/10/06 09:11:30;;;;;;;3.28;0.80;;;18.10;73.90;;;;;;4979739;28;20093;-81
2022/10/06 09:14:29;;;;;;;4.13;0.95;;;18.30;74.20;;;;;;4977162;28;20034;-77
2022/10/06 09:17:00;;;;;;;4.03;0.90;;;18.60;73.30;;;;;;4977694;28;20030;-74
2022/10/06 09:19:41;;;;;;;11.80;1.40;;;18.70;73.40;;;;;;4976056;28;20034;-74
2022/10/06 09:22:18;;;;;;;2.90;1.02;;;18.90;71.90;;;;;;4974461;28;20035;-74
2022/10/06 09:24:49;;;;;;;2.97;1.08;;;18.90;71.90;;;;;;4976112;28;20399;-72
2022/10/06 09:27:32;;;;;;;4.60;1.25;;;19.00;71.00;;;;;;4976100;28;20121;-73
2022/10/06 09:30:00;;;;;;;2.60;1.00;;;19.00;71.30;;;;;;4978019;28;20034;-73
2022/10/06 09:32:28;;;;;;;6.43;1.02;;;19.00;70.80;;;;;;4979418;28;20133;-72
2022/10/06 09:34:58;;;;;;;3.40;1.70;;;18.90;70.20;;;;;;4980074;28;20038;-71
2022/10/06 09:37:24;;;;;;;3.30;0.80;;;19.00;70.80;;;;;;4977952;28;20046;-74
2022/10/06 09:39:51;;;;;;;5.97;1.13;;;19.10;70.50;;;;;;4976937;28;20034;-74
2022/10/06 09:42:22;;;;;;;4.38;1.23;;;19.30;70.30;;;;;;4977007;28;20034;-74
2022/10/06 09:45:05;;;;;;;4.18;1.00;;;19.40;69.00;;;;;;4977517;28;20034;-68
2022/10/06 09:47:39;;;;;;;2.53;0.65;;;19.60;68.20;;;;;;4980412;28;20037;-72
2022/10/06 09:50:11;;;;;;;4.32;1.02;;;19.70;67.40;;;;;;4974138;28;20039;-72
2022/10/06 09:52:38;;;;;;;2.75;1.17;;;19.90;67.30;;;;;;4979530;28;20045;-77
2022/10/06 09:55:13;;;;;;;6.53;1.25;;;20.10;66.50;;;;;;4977341;28;20046;-77
2022/10/06 09:57:50;;;;;;;3.35;0.88;;;20.30;66.50;;;;;;4982696;28;20550;-77
2022/10/06 10:00:41;;;;;;;14.32;9.35;;;20.40;65.10;;;;;;4977009;28;20049;-77
2022/10/06 10:03:10;;;;;;;4.82;1.00;;;20.60;64.30;;;;;;4983595;28;20030;-77
2022/10/06 10:05:45;;;;;;;4.47;0.73;;;20.90;61.40;;;;;;4979230;28;20030;-77
2022/10/06 10:08:24;;;;;;;4.93;1.20;;;21.60;59.80;;;;;;4981991;28;20502;-77
2022/10/06 10:13:58;;;;;;;3.17;0.68;;;25.30;51.60;;;;;;4976884;28;20050;-75
2022/10/06 10:16:33;;;;;;;3.47;0.75;;;26.20;46.90;;;;;;4984174;28;20461;-76
2022/10/06 10:19:00;;;;;;;6.88;0.93;;;26.60;46.90;;;;;;4978926;28;20042;-76
2022/10/06 10:21:29;;;;;;;4.43;1.02;;;26.40;45.20;;;;;;4971584;28;20034;-76
2022/10/06 10:23:57;;;;;;;5.38;0.85;;;25.70;45.70;;;;;;4976247;28;20102;-77
2022/10/06 10:26:32;;;;;;;4.97;1.00;;;24.70;47.40;;;;;;4976494;28;20026;-80
2022/10/06 10:29:16;;;;;;;6.60;0.95;;;23.90;50.70;;;;;;4973722;28;20663;-76
2022/10/06 10:31:57;;;;;;;5.72;1.15;;;23.80;50.20;;;;;;4977611;28;20124;-73
2022/10/06 10:34:52;;;;;;;5.35;0.90;;;25.10;48.40;;;;;;4974325;28;20062;-70
2022/10/06 10:37:33;;;;;;;5.28;1.10;;;27.30;44.90;;;;;;4976146;28;20042;-74
2022/10/06 10:40:10;;;;;;;2.95;1.08;;;28.30;41.50;;;;;;4972574;28;20046;-77
2022/10/06 10:42:51;;;;;;;6.40;0.95;;;29.30;41.10;;;;;;4969349;28;20053;-76
2022/10/06 10:45:31;;;;;;;7.07;0.95;;;29.90;39.20;;;;;;4973570;28;20038;-73
2022/10/06 10:48:00;;;;;;;2.63;0.80;;;30.10;38.60;;;;;;4978058;28;20042;-75
2022/10/06 10:50:28;;;;;;;7.28;0.90;;;29.90;39.70;;;;;;4972532;28;20047;-78
2022/10/06 10:53:01;;;;;;;4.95;0.82;;;28.80;38.60;;;;;;4977966;28;20039;-81
2022/10/06 10:55:38;;;;;;;4.90;1.30;;;27.10;41.60;;;;;;4973952;28;20101;-67
2022/10/06 10:58:32;;;;;;;8.95;1.13;;;25.60;44.00;;;;;;4972561;28;20779;-65
2022/10/06 11:01:16;;;;;;;4.32;0.77;;;24.40;46.50;;;;;;4968192;28;20046;-67
2022/10/06 11:03:43;;;;;;;5.65;1.25;;;23.20;49.30;;;;;;4975488;28;20129;-67
2022/10/06 11:06:20;;;;;;;3.28;1.10;;;22.50;54.20;;;;;;4977065;28;20066;-67
2022/10/06 11:09:04;;;;;;;7.72;1.50;;;22.00;54.00;;;;;;4982739;28;20046;-68
2022/10/06 11:12:05;;;;;;;7.82;1.27;;;21.80;53.90;;;;;;4976475;28;20091;-67
2022/10/06 11:14:45;;;;;;;5.03;1.13;;;21.60;54.70;;;;;;4976853;28;20704;-67
2022/10/06 11:17:44;;;;;;;2.13;1.10;;;21.40;55.30;;;;;;4969900;28;20612;-67
2022/10/06 11:20:43;;;;;;;4.88;1.00;;;21.30;55.00;;;;;;4976341;28;20093;-67
2022/10/06 11:23:27;;;;;;;4.43;1.30;;;21.10;55.50;;;;;;4981662;28;20038;-67
2022/10/06 11:26:03;;;;;;;7.68;1.13;;;21.00;56.90;;;;;;4976933;28;20045;-67
2022/10/06 11:28:48;;;;;;;9.05;1.58;;;21.00;55.70;;;;;;4974755;28;20145;-68
2022/10/06 11:31:31;;;;;;;4.15;1.00;;;21.00;55.60;;;;;;4973220;28;20047;-67
2022/10/06 11:34:00;;;;;;;6.22;1.00;;;21.00;55.90;;;;;;4972392;28;20445;-66
2022/10/06 11:36:50;;;;;;;5.38;1.42;;;20.90;55.70;;;;;;4970941;28;20041;-70
2022/10/06 11:39:40;;;;;;;5.75;1.17;;;20.90;56.00;;;;;;4970172;28;20045;-69
2022/10/06 11:42:28;;;;;;;4.75;1.00;;;21.00;58.50;;;;;;4976445;28;20034;-69
2022/10/06 11:45:12;;;;;;;8.18;0.80;;;21.00;55.70;;;;;;4980888;28;20495;-68
2022/10/06 11:48:09;;;;;;;6.45;1.50;;;21.00;57.10;;;;;;4972985;28;20034;-69
2022/10/06 11:50:43;;;;;;;3.63;0.80;;;21.00;55.90;;;;;;4973590;28;20550;-67
2022/10/06 11:53:26;;;;;;;7.60;1.15;;;20.90;55.40;;;;;;4973607;28;20038;-68
2022/10/06 11:56:17;;;;;;;4.07;0.90;;;20.90;54.60;;;;;;4974988;28;20042;-68
2022/10/06 11:58:54;;;;;;;5.72;1.10;;;20.70;54.00;;;;;;4970933;28;20038;-67
2022/10/06 12:01:43;;;;;;;3.78;0.93;;;20.60;55.70;;;;;;4972474;28;20066;-73
2022/10/06 12:04:09;;;;;;;2.58;0.80;;;20.40;55.10;;;;;;4969129;28;20053;-68
2022/10/06 12:06:41;;;;;;;2.70;0.90;;;20.40;56.40;;;;;;4973561;28;20030;-70
2022/10/06 12:09:29;;;;;;;4.80;0.80;;;20.30;55.80;;;;;;4975469;28;20755;-69
2022/10/06 12:12:14;;;;;;;6.03;1.17;;;20.30;56.00;;;;;;4974848;28;20170;-69
2022/10/06 12:14:49;;;;;;;7.38;1.55;;;20.30;56.00;;;;;;4974539;28;20061;-70
2022/10/06 12:17:37;;;;;;;2.35;0.93;;;20.30;55.80;;;;;;4975822;28;20181;-69
2022/10/06 12:20:19;;;;;;;6.35;0.90;;;20.10;56.50;;;;;;4974097;28;20477;-69
2022/10/06 12:23:02;;;;;;;3.83;0.82;;;20.00;55.50;;;;;;4981015;28;20026;-65
2022/10/06 12:25:37;;;;;;;3.17;1.08;;;19.90;56.40;;;;;;4978777;28;20093;-68
2022/10/06 12:28:18;;;;;;;4.55;1.00;;;20.00;56.70;;;;;;4978408;28;20026;-67
2022/10/06 12:31:17;;;;;;;3.28;0.77;;;20.10;55.70;;;;;;4993703;28;20042;-67
2022/10/06 12:33:44;;;;;;;4.78;0.85;;;20.10;55.90;;;;;;4978517;28;20383;-67
2022/10/06 12:36:22;;;;;;;6.28;0.90;;;20.10;54.60;;;;;;4976002;28;20069;-68
2022/10/06 12:39:23;;;;;;;3.13;0.95;;;20.00;55.50;;;;;;4980681;28;20038;-72
2022/10/06 12:42:01;;;;;;;3.17;0.70;;;20.10;53.70;;;;;;4976956;28;20074;-72
2022/10/06 12:44:41;;;;;;;3.55;1.25;;;20.20;55.70;;;;;;4977689;28;20081;-72
2022/10/06 12:47:24;;;;;;;3.60;0.88;;;20.20;57.30;;;;;;4975328;28;20045;-70
2022/10/06 12:49:58;;;;;;;5.95;0.73;;;20.30;55.60;;;;;;4973950;28;20483;-69
2022/10/06 12:52:33;;;;;;;2.97;1.00;;;20.30;55.10;;;;;;4976676;28;20502;-68
2022/10/06 12:55:26;;;;;;;5.53;1.10;;;20.30;55.60;;;;;;4976428;28;20045;-68
2022/10/06 12:57:53;;;;;;;5.05;1.02;;;20.20;55.00;;;;;;4976679;28;20125;-68
2022/10/06 13:00:37;;;;;;;2.13;0.75;;;20.20;54.70;;;;;;4982243;28;20058;-66
2022/10/06 13:03:05;;;;;;;5.45;1.02;;;20.10;56.70;;;;;;4978495;28;20035;-70
2022/10/06 13:05:35;;;;;;;3.05;1.15;;;20.20;56.60;;;;;;4974627;28;20098;-67
2022/10/06 13:08:05;;;;;;;5.43;1.00;;;20.30;56.00;;;;;;4978075;28;20173;-67
2022/10/06 13:10:32;;;;;;;8.02;0.93;;;20.20;54.40;;;;;;4976328;28;20040;-68
2022/10/06 13:12:58;;;;;;;3.92;0.90;;;20.10;54.00;;;;;;4976863;28;20188;-66
2022/10/06 13:15:40;;;;;;;3.70;1.00;;;19.90;56.10;;;;;;4982389;28;20039;-67
2022/10/06 13:18:09;;;;;;;5.43;0.80;;;20.00;56.10;;;;;;4977640;28;20144;-67
2022/10/06 13:20:41;;;;;;;1.67;0.60;;;20.00;55.30;;;;;;4977699;28;20117;-67
2022/10/06 13:23:28;;;;;;;4.20;0.70;;;19.90;54.70;;;;;;4974565;28;20035;-66